PWSweather.com
Personal Weather Stations
Station Observations
ISYDDANM23
Felsted, AabenraaDK 6200

FelstedAabenraaDK 6200

Lat: 54.977066, Lon: 9.507192

Elevation: 135

Station Type: Davis Vantage Pro 2 Plus 24H

http://www.valkaer.dk

High Low Average
Temperature 44.6°F7.0°C 29.8°F-1.2°C 38.0°F3.3°C
Dew Point 42.7°F5.9°C 28.3°F-2.1°C 35.9°F2.2°C
Winds 5.8 mph 9.3 kmh Calm Calm 2.0 mph S3.2 kmh S
Wind Gusts 11.5 mph18.5 kmh -- 3.0 mph4.8 kmh
Humidity 95% 85% 92%
Pressure 29.59 in1002.0 mb 29.56 in1001.0 mb -
Precipitation 0.14 in3.6 mm - -
Hour Temp Dew Point Humidity Winds Wind Gusts Pressure Precip Precip Rate Daily Precip Total
12:00 AM 38.1°F3.4°C 36.3°F2.4°C 93% Calm Calm -- 29.57 in1001.4 mb - 0.00 in0.0 mm 0.00 in0.0 mm
12:10 AM 37.9°F3.3°C 36.1°F2.3°C 93% Calm Calm -- 29.57 in1001.4 mb - 0.00 in0.0 mm 0.00 in0.0 mm
12:15 AM 37.4°F3.0°C 35.6°F2.0°C 93% Calm Calm -- 29.57 in1001.4 mb - 0.00 in0.0 mm 0.00 in0.0 mm
12:20 AM 37.1°F2.8°C 35.3°F1.8°C 93% Calm Calm -- 29.57 in1001.4 mb - 0.00 in0.0 mm 0.00 in0.0 mm
12:25 AM 36.7°F2.6°C 34.9°F1.6°C 93% Calm Calm -- 29.57 in1001.4 mb - 0.00 in0.0 mm 0.00 in0.0 mm
12:30 AM 36.5°F2.5°C 34.7°F1.5°C 93% Calm Calm -- 29.57 in1001.4 mb - 0.00 in0.0 mm 0.00 in0.0 mm
12:35 AM 36.4°F2.4°C 34.5°F1.4°C 93% Calm Calm -- 29.57 in1001.4 mb - 0.00 in0.0 mm 0.00 in0.0 mm
12:40 AM 36.1°F2.3°C 34.3°F1.3°C 93% Calm Calm -- 29.57 in1001.4 mb - 0.00 in0.0 mm 0.00 in0.0 mm
12:45 AM 35.6°F2.0°C 33.7°F0.9°C 93% Calm Calm 2.3 mph3.7 kmh 29.57 in1001.4 mb - 0.00 in0.0 mm 0.00 in0.0 mm
12:50 AM 34.7°F1.5°C 32.9°F0.5°C 93% 2.3 mph SW3.7 kmh SW 3.5 mph5.6 kmh 29.57 in1001.4 mb - 0.00 in0.0 mm 0.00 in0.0 mm
12:55 AM 34.5°F1.4°C 32.7°F0.4°C 93% 2.3 mph SW3.7 kmh SW 3.5 mph5.6 kmh 29.57 in1001.4 mb - 0.00 in0.0 mm 0.00 in0.0 mm
01:00 AM 34.4°F1.3°C 32.6°F0.3°C 93% Calm Calm -- 29.57 in1001.4 mb - 0.00 in0.0 mm 0.00 in0.0 mm
01:10 AM 34.4°F1.3°C 32.9°F0.5°C 94% Calm Calm -- 29.58 in1001.7 mb - 0.00 in0.0 mm 0.00 in0.0 mm
01:15 AM 34.3°F1.3°C 32.8°F0.4°C 94% Calm Calm -- 29.58 in1001.7 mb - 0.00 in0.0 mm 0.00 in0.0 mm
01:20 AM 34.1°F1.2°C 32.6°F0.3°C 94% Calm Calm -- 29.57 in1001.4 mb - 0.00 in0.0 mm 0.00 in0.0 mm
01:25 AM 33.6°F0.9°C 32.1°F0.1°C 94% Calm Calm -- 29.57 in1001.4 mb - 0.00 in0.0 mm 0.00 in0.0 mm
01:30 AM 33.3°F0.7°C 31.5°F-0.3°C 93% Calm Calm -- 29.57 in1001.4 mb - 0.00 in0.0 mm 0.00 in0.0 mm
01:35 AM 33.2°F0.7°C 31.7°F-0.2°C 94% Calm Calm -- 29.57 in1001.4 mb - 0.00 in0.0 mm 0.00 in0.0 mm
01:40 AM 33.2°F0.7°C 31.7°F-0.2°C 94% Calm Calm -- 29.58 in1001.7 mb - 0.00 in0.0 mm 0.00 in0.0 mm
01:45 AM 33.1°F0.6°C 31.6°F-0.2°C 94% Calm Calm -- 29.58 in1001.7 mb - 0.00 in0.0 mm 0.00 in0.0 mm
01:50 AM 33.0°F0.6°C 31.5°F-0.3°C 94% Calm Calm -- 29.57 in1001.4 mb - 0.00 in0.0 mm 0.00 in0.0 mm
01:55 AM 32.7°F0.4°C 31.2°F-0.4°C 94% 2.3 mph WSW3.7 kmh WSW 3.5 mph5.6 kmh 29.58 in1001.7 mb - 0.00 in0.0 mm 0.00 in0.0 mm
02:00 AM 32.7°F0.4°C 31.2°F-0.4°C 94% 1.2 mph WSW1.9 kmh WSW 2.3 mph3.7 kmh 29.58 in1001.7 mb - 0.00 in0.0 mm 0.00 in0.0 mm
02:10 AM 33.1°F0.6°C 31.5°F-0.3°C 94% 1.2 mph W1.9 kmh W 2.3 mph3.7 kmh 29.58 in1001.7 mb - 0.00 in0.0 mm 0.00 in0.0 mm
02:15 AM 33.1°F0.6°C 31.6°F-0.2°C 94% Calm Calm 1.2 mph1.9 kmh 29.58 in1001.7 mb - 0.00 in0.0 mm 0.00 in0.0 mm
02:20 AM 33.1°F0.6°C 31.6°F-0.2°C 94% Calm Calm 1.2 mph1.9 kmh 29.58 in1001.7 mb - 0.00 in0.0 mm 0.00 in0.0 mm
02:25 AM 33.1°F0.6°C 31.5°F-0.3°C 94% 1.2 mph W1.9 kmh W 2.3 mph3.7 kmh 29.58 in1001.7 mb - 0.00 in0.0 mm 0.00 in0.0 mm
02:30 AM 33.1°F0.6°C 31.6°F-0.2°C 94% 2.3 mph WSW3.7 kmh WSW 3.5 mph5.6 kmh 29.58 in1001.7 mb - 0.00 in0.0 mm 0.00 in0.0 mm
02:35 AM 33.1°F0.6°C 31.6°F-0.2°C 94% Calm Calm 1.2 mph1.9 kmh 29.58 in1001.7 mb - 0.00 in0.0 mm 0.00 in0.0 mm
02:40 AM 33.2°F0.7°C 31.7°F-0.2°C 94% Calm Calm -- 29.58 in1001.7 mb - 0.00 in0.0 mm 0.00 in0.0 mm
02:45 AM 33.2°F0.7°C 31.7°F-0.2°C 94% Calm Calm -- 29.58 in1001.7 mb - 0.00 in0.0 mm 0.00 in0.0 mm
02:50 AM 33.3°F0.7°C 31.8°F-0.1°C 94% Calm Calm -- 29.58 in1001.7 mb - 0.00 in0.0 mm 0.00 in0.0 mm
02:55 AM 33.3°F0.7°C 31.8°F-0.1°C 94% Calm Calm -- 29.58 in1001.7 mb - 0.00 in0.0 mm 0.00 in0.0 mm
03:00 AM 33.3°F0.7°C 31.8°F-0.1°C 94% Calm Calm -- 29.58 in1001.7 mb - 0.00 in0.0 mm 0.00 in0.0 mm
03:10 AM 33.2°F0.7°C 31.7°F-0.2°C 94% Calm Calm 1.2 mph1.9 kmh 29.57 in1001.4 mb - 0.00 in0.0 mm 0.00 in0.0 mm
03:15 AM 33.1°F0.6°C 31.5°F-0.3°C 94% Calm Calm -- 29.57 in1001.4 mb - 0.00 in0.0 mm 0.00 in0.0 mm
03:20 AM 32.6°F0.3°C 31.0°F-0.6°C 94% Calm Calm -- 29.57 in1001.4 mb - 0.00 in0.0 mm 0.00 in0.0 mm
03:25 AM 32.5°F0.3°C 30.9°F-0.6°C 94% 2.3 mph SW3.7 kmh SW 3.5 mph5.6 kmh 29.57 in1001.4 mb - 0.00 in0.0 mm 0.00 in0.0 mm
03:30 AM 32.7°F0.4°C 31.2°F-0.4°C 94% Calm Calm -- 29.57 in1001.4 mb - 0.00 in0.0 mm 0.00 in0.0 mm
03:35 AM 32.9°F0.5°C 31.4°F-0.3°C 94% Calm Calm -- 29.57 in1001.4 mb - 0.00 in0.0 mm 0.00 in0.0 mm
03:40 AM 32.8°F0.4°C 31.3°F-0.4°C 94% Calm Calm -- 29.57 in1001.4 mb - 0.01 in0.3 mm 0.01 in0.3 mm
03:45 AM 32.7°F0.4°C 31.2°F-0.4°C 94% Calm Calm -- 29.57 in1001.4 mb - 0.01 in0.3 mm 0.01 in0.3 mm
03:50 AM 32.5°F0.3°C 30.9°F-0.6°C 94% Calm Calm 1.2 mph1.9 kmh 29.57 in1001.4 mb - 0.01 in0.3 mm 0.01 in0.3 mm
03:55 AM 32.2°F0.1°C 30.7°F-0.7°C 94% Calm Calm -- 29.57 in1001.4 mb - 0.01 in0.3 mm 0.01 in0.3 mm
04:00 AM 31.9°F-0.1°C 30.4°F-0.9°C 94% Calm Calm 1.2 mph1.9 kmh 29.57 in1001.4 mb - 0.01 in0.3 mm 0.01 in0.3 mm
04:10 AM 31.6°F-0.2°C 30.1°F-1.1°C 94% Calm Calm 1.2 mph1.9 kmh 29.57 in1001.4 mb - 0.01 in0.3 mm 0.01 in0.3 mm
04:15 AM 31.6°F-0.2°C 30.1°F-1.1°C 94% Calm Calm -- 29.57 in1001.4 mb - 0.01 in0.3 mm 0.01 in0.3 mm
04:20 AM 31.6°F-0.2°C 30.1°F-1.1°C 94% Calm Calm -- 29.57 in1001.4 mb - 0.01 in0.3 mm 0.01 in0.3 mm
04:25 AM 31.5°F-0.3°C 30.0°F-1.1°C 94% Calm Calm 1.2 mph1.9 kmh 29.57 in1001.4 mb - 0.01 in0.3 mm 0.01 in0.3 mm
04:30 AM 31.6°F-0.2°C 30.1°F-1.1°C 94% 1.2 mph SW1.9 kmh SW 1.2 mph1.9 kmh 29.57 in1001.4 mb - 0.01 in0.3 mm 0.01 in0.3 mm
04:35 AM 31.6°F-0.2°C 30.1°F-1.1°C 94% 1.2 mph SW1.9 kmh SW 1.2 mph1.9 kmh 29.58 in1001.7 mb - 0.01 in0.3 mm 0.01 in0.3 mm
04:40 AM 31.8°F-0.1°C 30.2°F-1.0°C 94% Calm Calm -- 29.58 in1001.7 mb - 0.00 in0.0 mm 0.01 in0.3 mm
04:45 AM 31.8°F-0.1°C 30.3°F-0.9°C 94% Calm Calm -- 29.58 in1001.7 mb - 0.00 in0.0 mm 0.01 in0.3 mm
04:50 AM 31.8°F-0.1°C 30.3°F-0.9°C 94% Calm Calm -- 29.58 in1001.7 mb - 0.00 in0.0 mm 0.01 in0.3 mm
04:55 AM 31.9°F-0.1°C 30.4°F-0.9°C 94% Calm Calm 2.3 mph3.7 kmh 29.58 in1001.7 mb - 0.00 in0.0 mm 0.01 in0.3 mm
05:00 AM 31.9°F-0.1°C 30.4°F-0.9°C 94% Calm Calm -- 29.58 in1001.7 mb - 0.00 in0.0 mm 0.01 in0.3 mm
05:10 AM 31.8°F-0.1°C 30.3°F-0.9°C 94% Calm Calm -- 29.57 in1001.4 mb - 0.00 in0.0 mm 0.01 in0.3 mm
05:15 AM 31.7°F-0.2°C 30.2°F-1.0°C 94% Calm Calm -- 29.58 in1001.7 mb - 0.00 in0.0 mm 0.01 in0.3 mm
05:20 AM 31.6°F-0.2°C 30.1°F-1.1°C 94% Calm Calm -- 29.58 in1001.7 mb - 0.00 in0.0 mm 0.01 in0.3 mm
05:25 AM 31.5°F-0.3°C 30.0°F-1.1°C 94% Calm Calm -- 29.58 in1001.7 mb - 0.00 in0.0 mm 0.01 in0.3 mm
05:30 AM 31.4°F-0.3°C 29.9°F-1.2°C 94% Calm Calm -- 29.57 in1001.4 mb - 0.00 in0.0 mm 0.01 in0.3 mm
05:35 AM 31.4°F-0.3°C 29.8°F-1.2°C 94% Calm Calm -- 29.57 in1001.4 mb - 0.00 in0.0 mm 0.01 in0.3 mm
05:40 AM 31.2°F-0.4°C 29.7°F-1.3°C 94% Calm Calm -- 29.57 in1001.4 mb - 0.00 in0.0 mm 0.01 in0.3 mm
05:45 AM 31.1°F-0.5°C 29.6°F-1.3°C 94% Calm Calm -- 29.57 in1001.4 mb - 0.00 in0.0 mm 0.01 in0.3 mm
05:50 AM 30.9°F-0.6°C 29.4°F-1.4°C 94% Calm Calm -- 29.57 in1001.4 mb - 0.00 in0.0 mm 0.01 in0.3 mm
05:55 AM 30.9°F-0.6°C 29.4°F-1.4°C 94% Calm Calm -- 29.57 in1001.4 mb - 0.00 in0.0 mm 0.01 in0.3 mm
06:00 AM 30.9°F-0.6°C 29.4°F-1.4°C 94% Calm Calm -- 29.57 in1001.4 mb - 0.00 in0.0 mm 0.01 in0.3 mm
06:10 AM 30.9°F-0.6°C 29.4°F-1.4°C 94% Calm Calm -- 29.57 in1001.4 mb - 0.00 in0.0 mm 0.01 in0.3 mm
06:15 AM 31.0°F-0.6°C 29.5°F-1.4°C 94% Calm Calm -- 29.57 in1001.4 mb - 0.00 in0.0 mm 0.01 in0.3 mm
06:20 AM 31.0°F-0.6°C 29.5°F-1.4°C 94% Calm Calm -- 29.57 in1001.4 mb - 0.00 in0.0 mm 0.01 in0.3 mm
06:25 AM 31.0°F-0.6°C 29.5°F-1.4°C 94% Calm Calm -- 29.58 in1001.7 mb - 0.00 in0.0 mm 0.01 in0.3 mm
06:30 AM 30.9°F-0.6°C 29.4°F-1.4°C 94% Calm Calm -- 29.57 in1001.4 mb - 0.00 in0.0 mm 0.01 in0.3 mm
06:35 AM 30.8°F-0.7°C 29.3°F-1.5°C 94% Calm Calm -- 29.58 in1001.7 mb - 0.00 in0.0 mm 0.01 in0.3 mm
06:40 AM 30.7°F-0.7°C 29.2°F-1.6°C 94% Calm Calm -- 29.58 in1001.7 mb - 0.00 in0.0 mm 0.01 in0.3 mm
06:45 AM 30.6°F-0.8°C 29.1°F-1.6°C 94% Calm Calm -- 29.58 in1001.7 mb - 0.00 in0.0 mm 0.01 in0.3 mm
06:50 AM 30.6°F-0.8°C 29.1°F-1.6°C 94% Calm Calm -- 29.57 in1001.4 mb - 0.00 in0.0 mm 0.01 in0.3 mm
06:55 AM 30.5°F-0.8°C 29.0°F-1.7°C 94% Calm Calm -- 29.57 in1001.4 mb - 0.00 in0.0 mm 0.01 in0.3 mm
07:00 AM 30.4°F-0.9°C 28.9°F-1.7°C 94% Calm Calm -- 29.58 in1001.7 mb - 0.00 in0.0 mm 0.01 in0.3 mm
07:10 AM 30.3°F-0.9°C 28.8°F-1.8°C 94% Calm Calm -- 29.58 in1001.7 mb - 0.00 in0.0 mm 0.01 in0.3 mm
07:15 AM 30.2°F-1.0°C 28.7°F-1.8°C 94% Calm Calm -- 29.58 in1001.7 mb - 0.00 in0.0 mm 0.01 in0.3 mm
07:20 AM 30.1°F-1.1°C 28.6°F-1.9°C 94% Calm Calm -- 29.58 in1001.7 mb - 0.00 in0.0 mm 0.01 in0.3 mm
07:25 AM 30.1°F-1.1°C 28.5°F-1.9°C 94% Calm Calm -- 29.58 in1001.7 mb - 0.00 in0.0 mm 0.01 in0.3 mm
07:30 AM 30.0°F-1.1°C 28.5°F-1.9°C 94% Calm Calm -- 29.58 in1001.7 mb - 0.00 in0.0 mm 0.01 in0.3 mm
07:35 AM 30.1°F-1.1°C 28.6°F-1.9°C 94% Calm Calm -- 29.58 in1001.7 mb - 0.00 in0.0 mm 0.01 in0.3 mm
07:40 AM 30.0°F-1.1°C 28.5°F-1.9°C 94% Calm Calm -- 29.58 in1001.7 mb - 0.00 in0.0 mm 0.01 in0.3 mm
07:45 AM 29.9°F-1.2°C 28.4°F-2.0°C 94% Calm Calm -- 29.58 in1001.7 mb - 0.00 in0.0 mm 0.01 in0.3 mm
07:50 AM 29.9°F-1.2°C 28.4°F-2.0°C 94% Calm Calm -- 29.58 in1001.7 mb - 0.00 in0.0 mm 0.01 in0.3 mm
07:55 AM 29.9°F-1.2°C 28.4°F-2.0°C 94% Calm Calm -- 29.58 in1001.7 mb - 0.00 in0.0 mm 0.01 in0.3 mm
08:00 AM 29.9°F-1.2°C 28.3°F-2.1°C 94% Calm Calm -- 29.58 in1001.7 mb - 0.00 in0.0 mm 0.01 in0.3 mm
08:10 AM 29.9°F-1.2°C 28.4°F-2.0°C 94% Calm Calm -- 29.58 in1001.7 mb - 0.00 in0.0 mm 0.01 in0.3 mm
08:15 AM 29.8°F-1.2°C 28.3°F-2.1°C 94% Calm Calm -- 29.58 in1001.7 mb - 0.00 in0.0 mm 0.01 in0.3 mm
08:20 AM 30.0°F-1.1°C 28.5°F-1.9°C 94% Calm Calm -- 29.58 in1001.7 mb - 0.00 in0.0 mm 0.01 in0.3 mm
08:25 AM 30.0°F-1.1°C 28.5°F-1.9°C 94% Calm Calm -- 29.58 in1001.7 mb - 0.00 in0.0 mm 0.01 in0.3 mm
08:30 AM 30.1°F-1.1°C 28.6°F-1.9°C 94% Calm Calm -- 29.58 in1001.7 mb - 0.00 in0.0 mm 0.01 in0.3 mm
08:35 AM 30.2°F-1.0°C 28.7°F-1.8°C 94% Calm Calm -- 29.58 in1001.7 mb - 0.00 in0.0 mm 0.01 in0.3 mm
08:40 AM 30.3°F-0.9°C 28.8°F-1.8°C 94% Calm Calm -- 29.58 in1001.7 mb - 0.00 in0.0 mm 0.01 in0.3 mm
08:45 AM 30.4°F-0.9°C 28.9°F-1.7°C 94% Calm Calm -- 29.58 in1001.7 mb - 0.00 in0.0 mm 0.01 in0.3 mm
08:50 AM 30.6°F-0.8°C 29.1°F-1.6°C 94% Calm Calm -- 29.58 in1001.7 mb - 0.00 in0.0 mm 0.01 in0.3 mm
08:55 AM 30.7°F-0.7°C 29.2°F-1.6°C 94% Calm Calm -- 29.58 in1001.7 mb - 0.00 in0.0 mm 0.01 in0.3 mm
09:00 AM 31.1°F-0.5°C 29.6°F-1.3°C 94% Calm Calm -- 29.58 in1001.7 mb - 0.00 in0.0 mm 0.01 in0.3 mm
09:10 AM 31.8°F-0.1°C 30.3°F-0.9°C 94% Calm Calm -- 29.58 in1001.7 mb - 0.00 in0.0 mm 0.01 in0.3 mm
09:15 AM 32.1°F0.1°C 30.8°F-0.7°C 95% Calm Calm -- 29.58 in1001.7 mb - 0.00 in0.0 mm 0.01 in0.3 mm
09:20 AM 32.2°F0.1°C 30.9°F-0.6°C 95% Calm Calm -- 29.58 in1001.7 mb - 0.00 in0.0 mm 0.01 in0.3 mm
09:25 AM 32.2°F0.1°C 30.7°F-0.7°C 94% Calm Calm -- 29.58 in1001.7 mb - 0.00 in0.0 mm 0.01 in0.3 mm
09:30 AM 32.4°F0.2°C 30.9°F-0.6°C 94% Calm Calm -- 29.58 in1001.7 mb - 0.00 in0.0 mm 0.01 in0.3 mm
09:35 AM 32.5°F0.3°C 30.9°F-0.6°C 94% Calm Calm -- 29.58 in1001.7 mb - 0.00 in0.0 mm 0.01 in0.3 mm
09:40 AM 32.4°F0.2°C 30.9°F-0.6°C 94% Calm Calm -- 29.58 in1001.7 mb - 0.00 in0.0 mm 0.01 in0.3 mm
09:45 AM 32.7°F0.4°C 31.4°F-0.3°C 95% Calm Calm -- 29.58 in1001.7 mb - 0.00 in0.0 mm 0.01 in0.3 mm
09:50 AM 32.8°F0.4°C 31.5°F-0.3°C 95% Calm Calm -- 29.58 in1001.7 mb - 0.00 in0.0 mm 0.01 in0.3 mm
09:55 AM 33.5°F0.8°C 32.2°F0.1°C 95% Calm Calm -- 29.59 in1002.0 mb - 0.00 in0.0 mm 0.01 in0.3 mm
10:00 AM 34.0°F1.1°C 32.8°F0.4°C 95% Calm Calm -- 29.59 in1002.0 mb - 0.00 in0.0 mm 0.01 in0.3 mm
10:10 AM 34.8°F1.6°C 33.5°F0.8°C 95% Calm Calm -- 29.59 in1002.0 mb - 0.00 in0.0 mm 0.01 in0.3 mm
10:15 AM 35.2°F1.8°C 33.9°F1.1°C 95% Calm Calm -- 29.59 in1002.0 mb - 0.00 in0.0 mm 0.01 in0.3 mm
10:20 AM 35.8°F2.1°C 34.5°F1.4°C 95% Calm Calm -- 29.59 in1002.0 mb - 0.00 in0.0 mm 0.01 in0.3 mm
10:25 AM 36.5°F2.5°C 35.2°F1.8°C 95% Calm Calm -- 29.59 in1002.0 mb - 0.00 in0.0 mm 0.01 in0.3 mm
10:30 AM 36.9°F2.7°C 35.6°F2.0°C 95% Calm Calm -- 29.59 in1002.0 mb - 0.00 in0.0 mm 0.01 in0.3 mm
10:35 AM 36.6°F2.6°C 35.3°F1.8°C 95% Calm Calm -- 29.59 in1002.0 mb - 0.01 in0.3 mm 0.02 in0.5 mm
10:40 AM 36.8°F2.7°C 35.5°F1.9°C 95% Calm Calm -- 29.59 in1002.0 mb - 0.01 in0.3 mm 0.02 in0.5 mm
10:45 AM 36.8°F2.7°C 35.5°F1.9°C 95% Calm Calm -- 29.59 in1002.0 mb - 0.01 in0.3 mm 0.02 in0.5 mm
10:50 AM 37.1°F2.8°C 35.8°F2.1°C 95% Calm Calm -- 29.59 in1002.0 mb - 0.01 in0.3 mm 0.02 in0.5 mm
10:55 AM 37.3°F2.9°C 36.0°F2.2°C 95% Calm Calm -- 29.59 in1002.0 mb - 0.01 in0.3 mm 0.02 in0.5 mm
11:00 AM 37.3°F2.9°C 36.0°F2.2°C 95% Calm Calm -- 29.59 in1002.0 mb - 0.01 in0.3 mm 0.02 in0.5 mm
11:10 AM 37.4°F3.0°C 36.1°F2.3°C 95% Calm Calm -- 29.59 in1002.0 mb - 0.01 in0.3 mm 0.02 in0.5 mm
11:15 AM 38.0°F3.3°C 36.7°F2.6°C 95% Calm Calm -- 29.59 in1002.0 mb - 0.01 in0.3 mm 0.02 in0.5 mm
11:20 AM 38.7°F3.7°C 37.4°F3.0°C 95% 1.2 mph S1.9 kmh S 2.3 mph3.7 kmh 29.59 in1002.0 mb - 0.01 in0.3 mm 0.02 in0.5 mm
11:25 AM 39.8°F4.3°C 38.5°F3.6°C 95% Calm Calm 2.3 mph3.7 kmh 29.59 in1002.0 mb - 0.01 in0.3 mm 0.02 in0.5 mm
11:30 AM 40.7°F4.8°C 39.4°F4.1°C 95% 2.3 mph SSE3.7 kmh SSE 3.5 mph5.6 kmh 29.59 in1002.0 mb - 0.01 in0.3 mm 0.02 in0.5 mm
11:35 AM 40.7°F4.8°C 39.3°F4.1°C 95% 3.5 mph SSE5.6 kmh SSE 4.6 mph7.4 kmh 29.59 in1002.0 mb - 0.00 in0.0 mm 0.02 in0.5 mm
11:40 AM 40.8°F4.9°C 39.4°F4.1°C 95% 3.5 mph SSE5.6 kmh SSE 3.5 mph5.6 kmh 29.59 in1002.0 mb - 0.00 in0.0 mm 0.02 in0.5 mm
11:45 AM 41.1°F5.1°C 39.7°F4.3°C 95% 2.3 mph SE3.7 kmh SE 3.5 mph5.6 kmh 29.59 in1002.0 mb - 0.00 in0.0 mm 0.02 in0.5 mm
11:50 AM 41.4°F5.2°C 40.1°F4.5°C 95% 2.3 mph SSE3.7 kmh SSE 4.6 mph7.4 kmh 29.59 in1002.0 mb - 0.00 in0.0 mm 0.02 in0.5 mm
11:55 AM 41.5°F5.3°C 40.2°F4.6°C 95% 2.3 mph ESE3.7 kmh ESE 3.5 mph5.6 kmh 29.59 in1002.0 mb - 0.00 in0.0 mm 0.02 in0.5 mm
12:00 PM 41.9°F5.5°C 40.6°F4.8°C 95% 2.3 mph SE3.7 kmh SE 3.5 mph5.6 kmh 29.59 in1002.0 mb - 0.00 in0.0 mm 0.02 in0.5 mm
12:10 PM 42.1°F5.6°C 40.7°F4.8°C 95% 3.5 mph SSE5.6 kmh SSE 5.8 mph9.3 kmh 29.59 in1002.0 mb - 0.00 in0.0 mm 0.02 in0.5 mm
12:15 PM 41.9°F5.5°C 40.6°F4.8°C 95% 5.8 mph SSE9.3 kmh SSE 6.9 mph11.1 kmh 29.58 in1001.7 mb - 0.00 in0.0 mm 0.02 in0.5 mm
12:20 PM 42.1°F5.6°C 40.8°F4.9°C 95% 5.8 mph SE9.3 kmh SE 9.2 mph14.8 kmh 29.58 in1001.7 mb - 0.00 in0.0 mm 0.02 in0.5 mm
12:25 PM 41.9°F5.5°C 40.3°F4.6°C 94% 3.5 mph SE5.6 kmh SE 4.6 mph7.4 kmh 29.59 in1002.0 mb - 0.00 in0.0 mm 0.02 in0.5 mm
12:30 PM 41.8°F5.4°C 40.2°F4.6°C 94% 2.3 mph SE3.7 kmh SE 3.5 mph5.6 kmh 29.58 in1001.7 mb - 0.00 in0.0 mm 0.02 in0.5 mm
12:35 PM 41.6°F5.3°C 40.0°F4.4°C 94% 3.5 mph SE5.6 kmh SE 3.5 mph5.6 kmh 29.58 in1001.7 mb - 0.00 in0.0 mm 0.02 in0.5 mm
12:40 PM 41.4°F5.2°C 39.5°F4.2°C 93% 2.3 mph SE3.7 kmh SE 3.5 mph5.6 kmh 29.58 in1001.7 mb - 0.00 in0.0 mm 0.02 in0.5 mm
12:45 PM 41.9°F5.5°C 40.0°F4.4°C 93% 2.3 mph SE3.7 kmh SE 4.6 mph7.4 kmh 29.58 in1001.7 mb - 0.00 in0.0 mm 0.02 in0.5 mm
12:50 PM 42.4°F5.8°C 40.5°F4.7°C 93% 2.3 mph ESE3.7 kmh ESE 3.5 mph5.6 kmh 29.58 in1001.7 mb - 0.00 in0.0 mm 0.02 in0.5 mm
12:55 PM 43.0°F6.1°C 40.8°F4.9°C 92% 3.5 mph SE5.6 kmh SE 5.8 mph9.3 kmh 29.58 in1001.7 mb - 0.00 in0.0 mm 0.02 in0.5 mm
01:00 PM 42.9°F6.1°C 40.5°F4.7°C 91% 4.6 mph SE7.4 kmh SE 6.9 mph11.1 kmh 29.58 in1001.7 mb - 0.00 in0.0 mm 0.02 in0.5 mm
01:10 PM 42.7°F5.9°C 40.3°F4.6°C 91% 3.5 mph SE5.6 kmh SE 4.6 mph7.4 kmh 29.58 in1001.7 mb - 0.00 in0.0 mm 0.02 in0.5 mm
01:15 PM 42.4°F5.8°C 40.0°F4.4°C 91% 4.6 mph S7.4 kmh S 5.8 mph9.3 kmh 29.57 in1001.4 mb - 0.00 in0.0 mm 0.02 in0.5 mm
01:20 PM 42.1°F5.6°C 39.7°F4.3°C 91% 3.5 mph ESE5.6 kmh ESE 3.5 mph5.6 kmh 29.58 in1001.7 mb - 0.00 in0.0 mm 0.02 in0.5 mm
01:25 PM 42.1°F5.6°C 39.7°F4.3°C 91% 3.5 mph SE5.6 kmh SE 5.8 mph9.3 kmh 29.58 in1001.7 mb - 0.00 in0.0 mm 0.02 in0.5 mm
01:30 PM 42.1°F5.6°C 39.7°F4.3°C 91% 3.5 mph SE5.6 kmh SE 9.2 mph14.8 kmh 29.58 in1001.7 mb - 0.00 in0.0 mm 0.02 in0.5 mm
01:35 PM 42.3°F5.7°C 39.9°F4.4°C 91% 5.8 mph SE9.3 kmh SE 9.2 mph14.8 kmh 29.58 in1001.7 mb - 0.00 in0.0 mm 0.02 in0.5 mm
01:40 PM 42.1°F5.6°C 39.4°F4.1°C 90% 4.6 mph SE7.4 kmh SE 8.1 mph13.0 kmh 29.58 in1001.7 mb - 0.00 in0.0 mm 0.02 in0.5 mm
01:45 PM 42.1°F5.6°C 39.4°F4.1°C 90% 4.6 mph SE7.4 kmh SE 8.1 mph13.0 kmh 29.57 in1001.4 mb - 0.00 in0.0 mm 0.02 in0.5 mm
01:50 PM 42.1°F5.6°C 39.4°F4.1°C 90% 4.6 mph SE7.4 kmh SE 6.9 mph11.1 kmh 29.58 in1001.7 mb - 0.00 in0.0 mm 0.02 in0.5 mm
01:55 PM 42.3°F5.7°C 39.6°F4.2°C 90% 4.6 mph SE7.4 kmh SE 6.9 mph11.1 kmh 29.58 in1001.7 mb - 0.00 in0.0 mm 0.02 in0.5 mm
02:00 PM 42.5°F5.8°C 39.8°F4.3°C 90% 3.5 mph SE5.6 kmh SE 4.6 mph7.4 kmh 29.58 in1001.7 mb - 0.00 in0.0 mm 0.02 in0.5 mm
02:10 PM 43.6°F6.4°C 40.9°F4.9°C 90% 3.5 mph SE5.6 kmh SE 5.8 mph9.3 kmh 29.57 in1001.4 mb - 0.00 in0.0 mm 0.02 in0.5 mm
02:15 PM 43.7°F6.5°C 40.3°F4.6°C 88% 4.6 mph SE7.4 kmh SE 5.8 mph9.3 kmh 29.57 in1001.4 mb - 0.00 in0.0 mm 0.02 in0.5 mm
02:20 PM 43.9°F6.6°C 40.6°F4.8°C 88% 4.6 mph SE7.4 kmh SE 8.1 mph13.0 kmh 29.57 in1001.4 mb - 0.00 in0.0 mm 0.02 in0.5 mm
02:25 PM 43.9°F6.6°C 40.2°F4.6°C 87% 3.5 mph SE5.6 kmh SE 6.9 mph11.1 kmh 29.57 in1001.4 mb - 0.00 in0.0 mm 0.02 in0.5 mm
02:30 PM 43.9°F6.6°C 40.2°F4.6°C 87% 4.6 mph SSE7.4 kmh SSE 6.9 mph11.1 kmh 29.57 in1001.4 mb - 0.00 in0.0 mm 0.02 in0.5 mm
02:35 PM 43.9°F6.6°C 40.2°F4.6°C 87% 5.8 mph SE9.3 kmh SE 9.2 mph14.8 kmh 29.57 in1001.4 mb - 0.00 in0.0 mm 0.02 in0.5 mm
02:40 PM 44.0°F6.7°C 40.4°F4.7°C 87% 5.8 mph SE9.3 kmh SE 9.2 mph14.8 kmh 29.57 in1001.4 mb - 0.00 in0.0 mm 0.02 in0.5 mm
02:45 PM 43.9°F6.6°C 40.3°F4.6°C 87% 3.5 mph SE5.6 kmh SE 4.6 mph7.4 kmh 29.57 in1001.4 mb - 0.00 in0.0 mm 0.02 in0.5 mm
02:50 PM 44.1°F6.7°C 40.5°F4.7°C 87% 4.6 mph SE7.4 kmh SE 6.9 mph11.1 kmh 29.57 in1001.4 mb - 0.00 in0.0 mm 0.02 in0.5 mm
02:55 PM 44.1°F6.7°C 40.2°F4.6°C 86% 3.5 mph SE5.6 kmh SE 6.9 mph11.1 kmh 29.57 in1001.4 mb - 0.00 in0.0 mm 0.02 in0.5 mm
03:00 PM 44.1°F6.7°C 39.9°F4.4°C 85% 3.5 mph SE5.6 kmh SE 3.5 mph5.6 kmh 29.57 in1001.4 mb - 0.00 in0.0 mm 0.02 in0.5 mm
03:10 PM 44.4°F6.9°C 40.5°F4.7°C 86% 3.5 mph SE5.6 kmh SE 6.9 mph11.1 kmh 29.57 in1001.4 mb - 0.00 in0.0 mm 0.02 in0.5 mm
03:15 PM 44.2°F6.8°C 40.0°F4.4°C 85% 5.8 mph SE9.3 kmh SE 8.1 mph13.0 kmh 29.57 in1001.4 mb - 0.00 in0.0 mm 0.02 in0.5 mm
03:20 PM 43.9°F6.6°C 39.7°F4.3°C 85% 4.6 mph SE7.4 kmh SE 6.9 mph11.1 kmh 29.57 in1001.4 mb - 0.00 in0.0 mm 0.02 in0.5 mm
03:25 PM 43.6°F6.4°C 39.7°F4.3°C 86% 3.5 mph SE5.6 kmh SE 6.9 mph11.1 kmh 29.58 in1001.7 mb - 0.00 in0.0 mm 0.02 in0.5 mm
03:30 PM 43.6°F6.4°C 39.9°F4.4°C 87% 2.3 mph SE3.7 kmh SE 3.5 mph5.6 kmh 29.57 in1001.4 mb - 0.00 in0.0 mm 0.02 in0.5 mm
03:35 PM 43.4°F6.3°C 39.8°F4.3°C 87% 3.5 mph SE5.6 kmh SE 6.9 mph11.1 kmh 29.58 in1001.7 mb - 0.00 in0.0 mm 0.02 in0.5 mm
03:40 PM 43.2°F6.2°C 39.2°F4.0°C 86% 3.5 mph SE5.6 kmh SE 6.9 mph11.1 kmh 29.58 in1001.7 mb - 0.00 in0.0 mm 0.02 in0.5 mm
03:45 PM 43.0°F6.1°C 39.4°F4.1°C 87% 4.6 mph SE7.4 kmh SE 5.8 mph9.3 kmh 29.58 in1001.7 mb - 0.00 in0.0 mm 0.02 in0.5 mm
03:50 PM 42.8°F6.0°C 39.2°F4.0°C 87% 4.6 mph SE7.4 kmh SE 9.2 mph14.8 kmh 29.58 in1001.7 mb - 0.00 in0.0 mm 0.02 in0.5 mm
03:55 PM 42.6°F5.9°C 39.0°F3.9°C 87% 3.5 mph SE5.6 kmh SE 6.9 mph11.1 kmh 29.58 in1001.7 mb - 0.00 in0.0 mm 0.02 in0.5 mm
04:00 PM 42.4°F5.8°C 39.1°F3.9°C 88% 3.5 mph SE5.6 kmh SE 4.6 mph7.4 kmh 29.58 in1001.7 mb - 0.00 in0.0 mm 0.02 in0.5 mm
04:10 PM 41.8°F5.4°C 38.8°F3.8°C 89% 2.3 mph SE3.7 kmh SE 3.5 mph5.6 kmh 29.58 in1001.7 mb - 0.00 in0.0 mm 0.02 in0.5 mm
04:15 PM 41.5°F5.3°C 38.5°F3.6°C 89% 2.3 mph SE3.7 kmh SE 5.8 mph9.3 kmh 29.58 in1001.7 mb - 0.00 in0.0 mm 0.02 in0.5 mm
04:20 PM 41.5°F5.3°C 38.5°F3.6°C 89% 2.3 mph ESE3.7 kmh ESE 3.5 mph5.6 kmh 29.58 in1001.7 mb - 0.00 in0.0 mm 0.02 in0.5 mm
04:25 PM 41.6°F5.3°C 38.9°F3.8°C 90% 2.3 mph SE3.7 kmh SE 3.5 mph5.6 kmh 29.58 in1001.7 mb - 0.00 in0.0 mm 0.02 in0.5 mm
04:30 PM 41.6°F5.3°C 38.9°F3.8°C 90% 1.2 mph SE1.9 kmh SE 2.3 mph3.7 kmh 29.58 in1001.7 mb - 0.00 in0.0 mm 0.02 in0.5 mm
04:35 PM 41.5°F5.3°C 38.8°F3.8°C 90% 1.2 mph SE1.9 kmh SE 3.5 mph5.6 kmh 29.58 in1001.7 mb - 0.00 in0.0 mm 0.02 in0.5 mm
04:40 PM 41.3°F5.2°C 38.3°F3.5°C 89% 1.2 mph SE1.9 kmh SE 3.5 mph5.6 kmh 29.58 in1001.7 mb - 0.00 in0.0 mm 0.02 in0.5 mm
04:45 PM 41.1°F5.1°C 38.4°F3.6°C 90% 1.2 mph SE1.9 kmh SE 2.3 mph3.7 kmh 29.58 in1001.7 mb - 0.00 in0.0 mm 0.02 in0.5 mm
04:50 PM 41.0°F5.0°C 38.3°F3.5°C 90% 1.2 mph ESE1.9 kmh ESE 3.5 mph5.6 kmh 29.58 in1001.7 mb - 0.00 in0.0 mm 0.02 in0.5 mm
04:55 PM 40.9°F4.9°C 38.2°F3.4°C 90% 1.2 mph ESE1.9 kmh ESE 3.5 mph5.6 kmh 29.58 in1001.7 mb - 0.00 in0.0 mm 0.02 in0.5 mm
05:00 PM 40.8°F4.9°C 38.1°F3.4°C 90% Calm Calm 2.3 mph3.7 kmh 29.58 in1001.7 mb - 0.00 in0.0 mm 0.02 in0.5 mm
05:10 PM 40.7°F4.8°C 38.3°F3.5°C 91% 1.2 mph ESE1.9 kmh ESE 2.3 mph3.7 kmh 29.58 in1001.7 mb - 0.00 in0.0 mm 0.02 in0.5 mm
05:15 PM 40.7°F4.8°C 38.3°F3.5°C 91% 1.2 mph ESE1.9 kmh ESE 2.3 mph3.7 kmh 29.58 in1001.7 mb - 0.00 in0.0 mm 0.02 in0.5 mm
05:20 PM 40.9°F4.9°C 38.5°F3.6°C 91% 3.5 mph E5.6 kmh E 5.8 mph9.3 kmh 29.58 in1001.7 mb - 0.00 in0.0 mm 0.02 in0.5 mm
05:25 PM 41.0°F5.0°C 38.6°F3.7°C 91% 2.3 mph E3.7 kmh E 3.5 mph5.6 kmh 29.58 in1001.7 mb - 0.00 in0.0 mm 0.02 in0.5 mm
05:30 PM 41.1°F5.1°C 38.7°F3.7°C 91% 3.5 mph E5.6 kmh E 6.9 mph11.1 kmh 29.58 in1001.7 mb - 0.00 in0.0 mm 0.02 in0.5 mm
05:35 PM 41.2°F5.1°C 38.8°F3.8°C 91% 3.5 mph E5.6 kmh E 5.8 mph9.3 kmh 29.58 in1001.7 mb - 0.00 in0.0 mm 0.02 in0.5 mm
05:40 PM 41.3°F5.2°C 38.9°F3.8°C 91% 2.3 mph E3.7 kmh E 3.5 mph5.6 kmh 29.58 in1001.7 mb - 0.00 in0.0 mm 0.02 in0.5 mm
05:45 PM 41.4°F5.2°C 39.0°F3.9°C 91% 3.5 mph E5.6 kmh E 5.8 mph9.3 kmh 29.58 in1001.7 mb - 0.00 in0.0 mm 0.02 in0.5 mm
05:50 PM 41.5°F5.3°C 39.1°F3.9°C 91% 2.3 mph E3.7 kmh E 3.5 mph5.6 kmh 29.57 in1001.4 mb - 0.00 in0.0 mm 0.02 in0.5 mm
05:55 PM 41.5°F5.3°C 39.1°F3.9°C 91% 2.3 mph E3.7 kmh E 4.6 mph7.4 kmh 29.57 in1001.4 mb - 0.00 in0.0 mm 0.02 in0.5 mm
06:00 PM 41.5°F5.3°C 39.1°F3.9°C 91% 3.5 mph E5.6 kmh E 6.9 mph11.1 kmh 29.57 in1001.4 mb - 0.00 in0.0 mm 0.02 in0.5 mm
06:10 PM 41.4°F5.2°C 38.7°F3.7°C 90% 3.5 mph E5.6 kmh E 4.6 mph7.4 kmh 29.58 in1001.7 mb - 0.00 in0.0 mm 0.02 in0.5 mm
06:15 PM 41.5°F5.3°C 38.8°F3.8°C 90% 3.5 mph ENE5.6 kmh ENE 3.5 mph5.6 kmh 29.57 in1001.4 mb - 0.00 in0.0 mm 0.02 in0.5 mm
06:20 PM 41.3°F5.2°C 38.6°F3.7°C 90% 3.5 mph ENE5.6 kmh ENE 6.9 mph11.1 kmh 29.58 in1001.7 mb - 0.00 in0.0 mm 0.02 in0.5 mm
06:25 PM 41.2°F5.1°C 38.5°F3.6°C 90% 3.5 mph ENE5.6 kmh ENE 6.9 mph11.1 kmh 29.57 in1001.4 mb - 0.00 in0.0 mm 0.02 in0.5 mm
06:30 PM 41.1°F5.1°C 38.4°F3.6°C 90% 3.5 mph E5.6 kmh E 3.5 mph5.6 kmh 29.58 in1001.7 mb - 0.00 in0.0 mm 0.02 in0.5 mm
06:35 PM 41.2°F5.1°C 38.7°F3.7°C 91% 2.3 mph E3.7 kmh E 4.6 mph7.4 kmh 29.58 in1001.7 mb - 0.00 in0.0 mm 0.02 in0.5 mm
06:40 PM 41.6°F5.3°C 39.2°F4.0°C 91% 5.8 mph E9.3 kmh E 8.1 mph13.0 kmh 29.58 in1001.7 mb - 0.00 in0.0 mm 0.02 in0.5 mm
06:45 PM 41.9°F5.5°C 39.5°F4.2°C 91% 4.6 mph E7.4 kmh E 6.9 mph11.1 kmh 29.58 in1001.7 mb - 0.00 in0.0 mm 0.02 in0.5 mm
06:50 PM 42.2°F5.7°C 39.5°F4.2°C 90% 4.6 mph E7.4 kmh E 8.1 mph13.0 kmh 29.58 in1001.7 mb - 0.00 in0.0 mm 0.02 in0.5 mm
06:55 PM 42.2°F5.7°C 39.5°F4.2°C 90% 4.6 mph ESE7.4 kmh ESE 9.2 mph14.8 kmh 29.58 in1001.7 mb - 0.00 in0.0 mm 0.02 in0.5 mm
07:00 PM 42.2°F5.7°C 39.5°F4.2°C 90% 3.5 mph E5.6 kmh E 6.9 mph11.1 kmh 29.58 in1001.7 mb - 0.00 in0.0 mm 0.02 in0.5 mm
07:10 PM 42.3°F5.7°C 39.5°F4.2°C 90% 4.6 mph E7.4 kmh E 5.8 mph9.3 kmh 29.58 in1001.7 mb - 0.00 in0.0 mm 0.02 in0.5 mm
07:15 PM 42.4°F5.8°C 39.7°F4.3°C 90% 3.5 mph E5.6 kmh E 5.8 mph9.3 kmh 29.58 in1001.7 mb - 0.00 in0.0 mm 0.02 in0.5 mm
07:20 PM 42.6°F5.9°C 39.8°F4.3°C 90% 3.5 mph E5.6 kmh E 6.9 mph11.1 kmh 29.58 in1001.7 mb - 0.00 in0.0 mm 0.02 in0.5 mm
07:25 PM 42.7°F5.9°C 39.7°F4.3°C 89% 4.6 mph E7.4 kmh E 8.1 mph13.0 kmh 29.58 in1001.7 mb - 0.00 in0.0 mm 0.02 in0.5 mm
07:30 PM 42.8°F6.0°C 39.8°F4.3°C 89% 3.5 mph E5.6 kmh E 5.8 mph9.3 kmh 29.58 in1001.7 mb - 0.00 in0.0 mm 0.02 in0.5 mm
07:35 PM 42.9°F6.1°C 39.9°F4.4°C 89% 3.5 mph E5.6 kmh E 3.5 mph5.6 kmh 29.58 in1001.7 mb - 0.00 in0.0 mm 0.02 in0.5 mm
07:40 PM 43.0°F6.1°C 39.9°F4.4°C 89% 3.5 mph E5.6 kmh E 6.9 mph11.1 kmh 29.58 in1001.7 mb - 0.00 in0.0 mm 0.02 in0.5 mm
07:45 PM 43.1°F6.2°C 40.0°F4.4°C 89% 3.5 mph ESE5.6 kmh ESE 4.6 mph7.4 kmh 29.58 in1001.7 mb - 0.00 in0.0 mm 0.02 in0.5 mm
07:50 PM 43.1°F6.2°C 39.8°F4.3°C 88% 3.5 mph ESE5.6 kmh ESE 3.5 mph5.6 kmh 29.58 in1001.7 mb - 0.00 in0.0 mm 0.02 in0.5 mm
07:55 PM 43.2°F6.2°C 39.9°F4.4°C 88% 5.8 mph ESE9.3 kmh ESE 9.2 mph14.8 kmh 29.58 in1001.7 mb - 0.00 in0.0 mm 0.02 in0.5 mm
08:00 PM 43.2°F6.2°C 39.6°F4.2°C 87% 4.6 mph ESE7.4 kmh ESE 9.2 mph14.8 kmh 29.58 in1001.7 mb - 0.00 in0.0 mm 0.02 in0.5 mm
08:10 PM 43.3°F6.3°C 39.7°F4.3°C 87% 4.6 mph E7.4 kmh E 6.9 mph11.1 kmh 29.58 in1001.7 mb - 0.00 in0.0 mm 0.02 in0.5 mm
08:15 PM 43.3°F6.3°C 40.0°F4.4°C 88% 2.3 mph E3.7 kmh E 4.6 mph7.4 kmh 29.58 in1001.7 mb - 0.00 in0.0 mm 0.02 in0.5 mm
08:20 PM 43.4°F6.3°C 40.1°F4.5°C 88% 3.5 mph E5.6 kmh E 9.2 mph14.8 kmh 29.58 in1001.7 mb - 0.00 in0.0 mm 0.02 in0.5 mm
08:25 PM 43.4°F6.3°C 40.1°F4.5°C 88% 3.5 mph E5.6 kmh E 3.5 mph5.6 kmh 29.58 in1001.7 mb - 0.00 in0.0 mm 0.02 in0.5 mm
08:30 PM 43.4°F6.3°C 40.1°F4.5°C 88% 3.5 mph ENE5.6 kmh ENE 3.5 mph5.6 kmh 29.58 in1001.7 mb - 0.00 in0.0 mm 0.02 in0.5 mm
08:35 PM 43.3°F6.3°C 40.0°F4.4°C 88% 2.3 mph E3.7 kmh E 5.8 mph9.3 kmh 29.58 in1001.7 mb - 0.00 in0.0 mm 0.02 in0.5 mm
08:40 PM 43.2°F6.2°C 39.9°F4.4°C 88% 5.8 mph E9.3 kmh E 8.1 mph13.0 kmh 29.57 in1001.4 mb - 0.00 in0.0 mm 0.02 in0.5 mm
08:45 PM 43.3°F6.3°C 40.2°F4.6°C 89% 4.6 mph E7.4 kmh E 9.2 mph14.8 kmh 29.57 in1001.4 mb - 0.00 in0.0 mm 0.02 in0.5 mm
08:50 PM 43.3°F6.3°C 40.0°F4.4°C 88% 5.8 mph E9.3 kmh E 9.2 mph14.8 kmh 29.57 in1001.4 mb - 0.00 in0.0 mm 0.02 in0.5 mm
08:55 PM 43.5°F6.4°C 40.1°F4.5°C 88% 3.5 mph E5.6 kmh E 9.2 mph14.8 kmh 29.57 in1001.4 mb - 0.00 in0.0 mm 0.02 in0.5 mm
09:00 PM 43.5°F6.4°C 40.2°F4.6°C 88% 5.8 mph E9.3 kmh E 10.4 mph16.7 kmh 29.57 in1001.4 mb - 0.00 in0.0 mm 0.02 in0.5 mm
09:10 PM 43.7°F6.5°C 40.4°F4.7°C 88% 5.8 mph E9.3 kmh E 8.1 mph13.0 kmh 29.58 in1001.7 mb - 0.00 in0.0 mm 0.02 in0.5 mm
09:15 PM 43.7°F6.5°C 40.4°F4.7°C 88% 4.6 mph E7.4 kmh E 9.2 mph14.8 kmh 29.57 in1001.4 mb - 0.00 in0.0 mm 0.02 in0.5 mm
09:20 PM 43.9°F6.6°C 40.5°F4.7°C 88% 4.6 mph E7.4 kmh E 8.1 mph13.0 kmh 29.58 in1001.7 mb - 0.00 in0.0 mm 0.02 in0.5 mm
09:25 PM 43.9°F6.6°C 40.6°F4.8°C 88% 4.6 mph E7.4 kmh E 9.2 mph14.8 kmh 29.58 in1001.7 mb - 0.00 in0.0 mm 0.02 in0.5 mm
09:30 PM 44.0°F6.7°C 40.7°F4.8°C 88% 4.6 mph E7.4 kmh E 8.1 mph13.0 kmh 29.58 in1001.7 mb - 0.00 in0.0 mm 0.02 in0.5 mm
09:35 PM 44.1°F6.7°C 40.8°F4.9°C 88% 4.6 mph E7.4 kmh E 9.2 mph14.8 kmh 29.58 in1001.7 mb - 0.00 in0.0 mm 0.02 in0.5 mm
09:40 PM 44.2°F6.8°C 40.9°F4.9°C 88% 5.8 mph E9.3 kmh E 9.2 mph14.8 kmh 29.58 in1001.7 mb - 0.00 in0.0 mm 0.02 in0.5 mm
09:45 PM 44.3°F6.8°C 41.3°F5.2°C 89% 4.6 mph E7.4 kmh E 8.1 mph13.0 kmh 29.58 in1001.7 mb - 0.00 in0.0 mm 0.02 in0.5 mm
09:50 PM 44.4°F6.9°C 41.4°F5.2°C 89% 4.6 mph E7.4 kmh E 8.1 mph13.0 kmh 29.57 in1001.4 mb - 0.00 in0.0 mm 0.02 in0.5 mm
09:55 PM 44.5°F6.9°C 41.5°F5.3°C 89% 5.8 mph E9.3 kmh E 9.2 mph14.8 kmh 29.57 in1001.4 mb - 0.00 in0.0 mm 0.02 in0.5 mm
10:00 PM 44.6°F7.0°C 41.5°F5.3°C 89% 4.6 mph E7.4 kmh E 6.9 mph11.1 kmh 29.57 in1001.4 mb - 0.00 in0.0 mm 0.02 in0.5 mm
10:10 PM 44.6°F7.0°C 41.6°F5.3°C 89% 4.6 mph ESE7.4 kmh ESE 10.4 mph16.7 kmh 29.57 in1001.4 mb - 0.00 in0.0 mm 0.02 in0.5 mm
10:15 PM 44.6°F7.0°C 41.8°F5.4°C 90% 5.8 mph E9.3 kmh E 9.2 mph14.8 kmh 29.57 in1001.4 mb - 0.00 in0.0 mm 0.02 in0.5 mm
10:20 PM 44.6°F7.0°C 41.8°F5.4°C 90% 4.6 mph E7.4 kmh E 8.1 mph13.0 kmh 29.57 in1001.4 mb - 0.00 in0.0 mm 0.02 in0.5 mm
10:25 PM 44.5°F6.9°C 41.7°F5.4°C 90% 3.5 mph E5.6 kmh E 8.1 mph13.0 kmh 29.57 in1001.4 mb - 0.01 in0.3 mm 0.02 in0.5 mm
10:30 PM 44.4°F6.9°C 41.6°F5.3°C 90% 3.5 mph E5.6 kmh E 6.9 mph11.1 kmh 29.57 in1001.4 mb - 0.02 in0.5 mm 0.03 in0.8 mm
10:35 PM 44.2°F6.8°C 41.8°F5.4°C 91% 4.6 mph E7.4 kmh E 8.1 mph13.0 kmh 29.57 in1001.4 mb - 0.02 in0.5 mm 0.03 in0.8 mm
10:40 PM 44.2°F6.8°C 41.7°F5.4°C 91% 5.8 mph E9.3 kmh E 8.1 mph13.0 kmh 29.57 in1001.4 mb - 0.02 in0.5 mm 0.04 in1.0 mm
10:45 PM 44.1°F6.7°C 41.6°F5.3°C 91% 4.6 mph E7.4 kmh E 8.1 mph13.0 kmh 29.57 in1001.4 mb - 0.02 in0.5 mm 0.04 in1.0 mm
10:50 PM 44.1°F6.7°C 41.9°F5.5°C 92% 4.6 mph E7.4 kmh E 6.9 mph11.1 kmh 29.57 in1001.4 mb - 0.02 in0.5 mm 0.04 in1.0 mm
10:55 PM 44.1°F6.7°C 42.0°F5.6°C 92% 4.6 mph E7.4 kmh E 6.9 mph11.1 kmh 29.57 in1001.4 mb - 0.03 in0.8 mm 0.05 in1.3 mm
11:00 PM 44.2°F6.8°C 42.0°F5.6°C 92% 4.6 mph E7.4 kmh E 6.9 mph11.1 kmh 29.57 in1001.4 mb - 0.04 in1.0 mm 0.06 in1.5 mm
11:10 PM 44.3°F6.8°C 42.1°F5.6°C 92% 3.5 mph E5.6 kmh E 8.1 mph13.0 kmh 29.57 in1001.4 mb - 0.06 in1.5 mm 0.07 in1.8 mm
11:15 PM 44.3°F6.8°C 42.1°F5.6°C 92% 3.5 mph E5.6 kmh E 6.9 mph11.1 kmh 29.57 in1001.4 mb - 0.06 in1.5 mm 0.08 in2.0 mm
11:20 PM 44.4°F6.9°C 42.2°F5.7°C 92% 5.8 mph E9.3 kmh E 8.1 mph13.0 kmh 29.57 in1001.4 mb - 0.07 in1.8 mm 0.09 in2.3 mm
11:25 PM 44.4°F6.9°C 42.5°F5.8°C 93% 3.5 mph E5.6 kmh E 4.6 mph7.4 kmh 29.57 in1001.4 mb - 0.08 in2.0 mm 0.09 in2.3 mm
11:30 PM 44.4°F6.9°C 42.5°F5.8°C 93% 5.8 mph E9.3 kmh E 11.5 mph18.5 kmh 29.57 in1001.4 mb - 0.08 in2.0 mm 0.10 in2.5 mm
11:35 PM 44.4°F6.9°C 42.5°F5.8°C 93% 3.5 mph ESE5.6 kmh ESE 10.4 mph16.7 kmh 29.57 in1001.4 mb - 0.08 in2.0 mm 0.11 in2.8 mm
11:40 PM 44.4°F6.9°C 42.6°F5.9°C 93% 3.5 mph E5.6 kmh E 5.8 mph9.3 kmh 29.57 in1001.4 mb - 0.08 in2.0 mm 0.12 in3.0 mm
11:45 PM 44.5°F6.9°C 42.6°F5.9°C 93% 2.3 mph E3.7 kmh E 3.5 mph5.6 kmh 29.57 in1001.4 mb - 0.09 in2.3 mm 0.13 in3.3 mm
11:50 PM 44.6°F7.0°C 42.7°F5.9°C 93% 3.5 mph E5.6 kmh E 5.8 mph9.3 kmh 29.56 in1001.0 mb - 0.09 in2.3 mm 0.13 in3.3 mm
11:55 PM 44.6°F7.0°C 42.7°F5.9°C 93% 4.6 mph E7.4 kmh E 8.1 mph13.0 kmh 29.56 in1001.0 mb - 0.09 in2.3 mm 0.14 in3.6 mm